sensor_id;sensor_type;location;lat;lon;timestamp;pressure;altitude;pressure_sealevel;temperature;humidity
48606;BME280;8482;54.396;18.590;2023-12-20T15:02:26;99599.66;;;5.30;85.66
48606;BME280;8482;54.396;18.590;2023-12-20T15:04:52;99594.19;;;5.33;87.51
48606;BME280;8482;54.396;18.590;2023-12-20T15:07:19;99600.03;;;5.37;88.35
48606;BME280;8482;54.396;18.590;2023-12-20T15:09:45;99602.34;;;5.42;88.96
48606;BME280;8482;54.396;18.590;2023-12-20T15:12:12;99595.88;;;5.46;89.00
48606;BME280;8482;54.396;18.590;2023-12-20T15:14:39;99585.88;;;5.51;88.59
48606;BME280;8482;54.396;18.590;2023-12-20T15:17:05;99589.22;;;5.53;88.20
48606;BME280;8482;54.396;18.590;2023-12-20T15:19:31;99577.38;;;5.59;88.43
48606;BME280;8482;54.396;18.590;2023-12-20T15:21:57;99576.16;;;5.63;88.35
48606;BME280;8482;54.396;18.590;2023-12-20T15:24:25;99577.97;;;5.62;87.71
48606;BME280;8482;54.396;18.590;2023-12-20T15:27:04;99559.34;;;5.65;88.02
48606;BME280;8482;54.396;18.590;2023-12-20T15:29:30;99561.47;;;5.72;87.66
48606;BME280;8482;54.396;18.590;2023-12-20T15:31:56;99542.47;;;5.68;87.08
48606;BME280;8482;54.396;18.590;2023-12-20T15:34:22;99534.09;;;5.74;86.92
48606;BME280;8482;54.396;18.590;2023-12-20T15:36:48;99533.16;;;5.75;86.71
48606;BME280;8482;54.396;18.590;2023-12-20T15:39:14;99529.06;;;5.71;86.18
48606;BME280;8482;54.396;18.590;2023-12-20T15:41:40;99526.22;;;5.74;85.87
48606;BME280;8482;54.396;18.590;2023-12-20T15:44:06;99540.56;;;5.81;85.18
48606;BME280;8482;54.396;18.590;2023-12-20T15:46:32;99536.97;;;5.82;85.08
48606;BME280;8482;54.396;18.590;2023-12-20T15:48:58;99525.63;;;5.82;84.32
48606;BME280;8482;54.396;18.590;2023-12-20T15:51:24;99534.47;;;5.81;84.23
48606;BME280;8482;54.396;18.590;2023-12-20T15:53:50;99521.41;;;5.79;83.79
48606;BME280;8482;54.396;18.590;2023-12-20T15:56:19;99544.84;;;5.82;84.31
48606;BME280;8482;54.396;18.590;2023-12-20T15:58:45;99531.09;;;5.79;84.63
48606;BME280;8482;54.396;18.590;2023-12-20T16:01:13;99536.97;;;5.82;84.94
48606;BME280;8482;54.396;18.590;2023-12-20T16:03:40;99530.16;;;5.80;85.09
48606;BME280;8482;54.396;18.590;2023-12-20T16:06:06;99539.00;;;5.79;85.11
48606;BME280;8482;54.396;18.590;2023-12-20T16:08:33;99529.78;;;5.73;85.15
48606;BME280;8482;54.396;18.590;2023-12-20T16:10:58;99543.41;;;5.67;84.99
48606;BME280;8482;54.396;18.590;2023-12-20T16:13:24;99537.94;;;5.59;85.16
48606;BME280;8482;54.396;18.590;2023-12-20T16:15:50;99546.28;;;5.52;86.08
48606;BME280;8482;54.396;18.590;2023-12-20T16:18:16;99550.13;;;5.48;85.99
48606;BME280;8482;54.396;18.590;2023-12-20T16:20:42;99541.00;;;5.41;85.24
48606;BME280;8482;54.396;18.590;2023-12-20T16:23:07;99528.81;;;5.29;85.81
48606;BME280;8482;54.396;18.590;2023-12-20T16:25:33;99516.84;;;5.25;85.77
48606;BME280;8482;54.396;18.590;2023-12-20T16:28:04;99523.53;;;5.17;86.52
48606;BME280;8482;54.396;18.590;2023-12-20T16:30:31;99535.44;;;5.10;86.56
48606;BME280;8482;54.396;18.590;2023-12-20T16:32:56;99551.09;;;5.00;86.41
48606;BME280;8482;54.396;18.590;2023-12-20T16:35:22;99550.00;;;4.91;86.30
48606;BME280;8482;54.396;18.590;2023-12-20T16:37:48;99546.97;;;4.85;86.65
48606;BME280;8482;54.396;18.590;2023-12-20T16:40:14;99534.19;;;4.80;87.76
48606;BME280;8482;54.396;18.590;2023-12-20T16:42:40;99515.28;;;4.75;87.75
48606;BME280;8482;54.396;18.590;2023-12-20T16:45:06;99521.03;;;4.69;87.54
48606;BME280;8482;54.396;18.590;2023-12-20T16:47:32;99521.03;;;4.69;87.60
48606;BME280;8482;54.396;18.590;2023-12-20T16:49:58;99508.09;;;4.66;88.12
48606;BME280;8482;54.396;18.590;2023-12-20T16:52:26;99503.94;;;4.63;88.26
48606;BME280;8482;54.396;18.590;2023-12-20T16:54:52;99504.16;;;4.60;88.42
48606;BME280;8482;54.396;18.590;2023-12-20T16:57:18;99499.25;;;4.55;88.27
48606;BME280;8482;54.396;18.590;2023-12-20T16:59:46;99480.56;;;4.47;87.68
48606;BME280;8482;54.396;18.590;2023-12-20T17:02:12;99489.41;;;4.46;88.22
48606;BME280;8482;54.396;18.590;2023-12-20T17:04:38;99500.97;;;4.43;88.13
48606;BME280;8482;54.396;18.590;2023-12-20T17:07:04;99511.69;;;4.40;88.20
48606;BME280;8482;54.396;18.590;2023-12-20T17:09:30;99515.50;;;4.36;87.80
48606;BME280;8482;54.396;18.590;2023-12-20T17:11:57;99499.75;;;4.36;88.15
48606;BME280;8482;54.396;18.590;2023-12-20T17:14:22;99500.47;;;4.38;88.10
48606;BME280;8482;54.396;18.590;2023-12-20T17:16:48;99485.91;;;4.34;87.84
48606;BME280;8482;54.396;18.590;2023-12-20T17:19:15;99484.72;;;4.38;88.35
48606;BME280;8482;54.396;18.590;2023-12-20T17:21:41;99487.34;;;4.38;87.98
48606;BME280;8482;54.396;18.590;2023-12-20T17:24:08;99471.31;;;4.30;87.48
48606;BME280;8482;54.396;18.590;2023-12-20T17:26:34;99472.03;;;4.32;87.15
48606;BME280;8482;54.396;18.590;2023-12-20T17:28:59;99492.84;;;4.35;87.27
48606;BME280;8482;54.396;18.590;2023-12-20T17:31:25;99483.63;;;4.29;86.89
48606;BME280;8482;54.396;18.590;2023-12-20T17:33:51;99497.97;;;4.37;86.40
48606;BME280;8482;54.396;18.590;2023-12-20T17:36:17;99484.00;;;4.36;86.96
48606;BME280;8482;54.396;18.590;2023-12-20T17:38:43;99488.19;;;4.39;86.57
48606;BME280;8482;54.396;18.590;2023-12-20T17:41:08;99493.31;;;4.40;86.67
48606;BME280;8482;54.396;18.590;2023-12-20T17:43:34;99499.28;;;4.42;86.77
48606;BME280;8482;54.396;18.590;2023-12-20T17:46:00;99521.16;;;4.43;87.17
48606;BME280;8482;54.396;18.590;2023-12-20T17:48:26;99493.69;;;4.47;86.99
48606;BME280;8482;54.396;18.590;2023-12-20T17:50:52;99499.91;;;4.46;86.67
48606;BME280;8482;54.396;18.590;2023-12-20T17:53:18;99508.50;;;4.48;87.03
48606;BME280;8482;54.396;18.590;2023-12-20T17:55:43;99517.25;;;4.49;87.11
48606;BME280;8482;54.396;18.590;2023-12-20T17:58:09;99509.38;;;4.49;87.80
48606;BME280;8482;54.396;18.590;2023-12-20T18:00:36;99500.97;;;4.43;87.76
48606;BME280;8482;54.396;18.590;2023-12-20T18:03:03;99519.97;;;4.47;88.36
48606;BME280;8482;54.396;18.590;2023-12-20T18:05:29;99524.47;;;4.45;88.00
48606;BME280;8482;54.396;18.590;2023-12-20T18:07:55;99515.91;;;4.43;88.16
48606;BME280;8482;54.396;18.590;2023-12-20T18:10:21;99511.91;;;4.37;88.50
48606;BME280;8482;54.396;18.590;2023-12-20T18:12:47;99523.88;;;4.41;88.23
48606;BME280;8482;54.396;18.590;2023-12-20T18:15:14;99518.97;;;4.37;88.50
48606;BME280;8482;54.396;18.590;2023-12-20T18:17:41;99522.31;;;4.39;87.75
48606;BME280;8482;54.396;18.590;2023-12-20T18:20:07;99518.84;;;4.38;88.15
48606;BME280;8482;54.396;18.590;2023-12-20T18:22:34;99536.19;;;4.41;87.78
48606;BME280;8482;54.396;18.590;2023-12-20T18:24:59;99540.56;;;4.40;87.37
48606;BME280;8482;54.396;18.590;2023-12-20T18:27:25;99541.44;;;4.41;87.93
48606;BME280;8482;54.396;18.590;2023-12-20T18:29:52;99523.47;;;4.35;87.98
48606;BME280;8482;54.396;18.590;2023-12-20T18:32:18;99543.53;;;4.36;88.26
48606;BME280;8482;54.396;18.590;2023-12-20T18:34:45;99528.00;;;4.33;88.11
48606;BME280;8482;54.396;18.590;2023-12-20T18:37:11;99544.59;;;4.33;88.06
48606;BME280;8482;54.396;18.590;2023-12-20T18:39:38;99532.53;;;4.30;87.81
48606;BME280;8482;54.396;18.590;2023-12-20T18:42:07;99533.81;;;4.25;87.36
48606;BME280;8482;54.396;18.590;2023-12-20T18:44:34;99544.63;;;4.20;87.41
48606;BME280;8482;54.396;18.590;2023-12-20T18:47:00;99543.09;;;4.18;88.21
48606;BME280;8482;54.396;18.590;2023-12-20T18:49:26;99552.84;;;4.16;88.18
48606;BME280;8482;54.396;18.590;2023-12-20T18:51:52;99536.50;;;4.12;87.99
48606;BME280;8482;54.396;18.590;2023-12-20T18:54:19;99538.59;;;4.07;87.64
48606;BME280;8482;54.396;18.590;2023-12-20T18:56:46;99549.09;;;4.07;87.88
48606;BME280;8482;54.396;18.590;2023-12-20T18:59:14;99538.31;;;3.98;88.18
48606;BME280;8482;54.396;18.590;2023-12-20T19:01:43;99545.13;;;4.01;87.85
48606;BME280;8482;54.396;18.590;2023-12-20T19:04:09;99542.81;;;3.96;88.00
48606;BME280;8482;54.396;18.590;2023-12-20T19:06:35;99543.97;;;3.92;87.49
48606;BME280;8482;54.396;18.590;2023-12-20T19:09:00;99561.53;;;3.92;87.42
48606;BME280;8482;54.396;18.590;2023-12-20T19:11:26;99560.91;;;3.88;87.33
48606;BME280;8482;54.396;18.590;2023-12-20T19:13:52;99569.94;;;3.84;87.50
48606;BME280;8482;54.396;18.590;2023-12-20T19:16:18;99562.72;;;3.75;87.74
48606;BME280;8482;54.396;18.590;2023-12-20T19:18:44;99571.31;;;3.77;87.72
48606;BME280;8482;54.396;18.590;2023-12-20T19:21:11;99587.25;;;3.74;88.26
48606;BME280;8482;54.396;18.590;2023-12-20T19:23:37;99636.66;;;3.67;87.98
48606;BME280;8482;54.396;18.590;2023-12-20T19:26:03;99594.28;;;3.60;87.63
48606;BME280;8482;54.396;18.590;2023-12-20T19:28:29;99610.09;;;3.59;88.29
48606;BME280;8482;54.396;18.590;2023-12-20T19:30:55;99601.81;;;3.52;88.86
48606;BME280;8482;54.396;18.590;2023-12-20T19:33:24;99600.78;;;3.42;88.96
48606;BME280;8482;54.396;18.590;2023-12-20T19:35:50;99602.66;;;3.40;89.32
48606;BME280;8482;54.396;18.590;2023-12-20T19:38:16;99591.66;;;3.34;89.58
48606;BME280;8482;54.396;18.590;2023-12-20T19:40:42;99589.44;;;3.28;89.82
48606;BME280;8482;54.396;18.590;2023-12-20T19:43:08;99581.16;;;3.34;89.32
48606;BME280;8482;54.396;18.590;2023-12-20T19:45:35;99584.94;;;3.30;90.00
48606;BME280;8482;54.396;18.590;2023-12-20T19:48:01;99580.75;;;3.28;89.76
48606;BME280;8482;54.396;18.590;2023-12-20T19:50:26;99587.97;;;3.24;90.15
48606;BME280;8482;54.396;18.590;2023-12-20T19:52:52;99580.22;;;3.22;90.56
48606;BME280;8482;54.396;18.590;2023-12-20T19:55:18;99585.75;;;3.18;90.16
48606;BME280;8482;54.396;18.590;2023-12-20T19:57:44;99596.25;;;3.18;89.93
48606;BME280;8482;54.396;18.590;2023-12-20T20:00:10;99595.63;;;3.14;90.61
48606;BME280;8482;54.396;18.590;2023-12-20T20:02:36;99590.25;;;3.16;90.43
48606;BME280;8482;54.396;18.590;2023-12-20T20:05:05;99599.06;;;3.15;90.61
48606;BME280;8482;54.396;18.590;2023-12-20T20:07:33;99606.91;;;3.15;90.74
48606;BME280;8482;54.396;18.590;2023-12-20T20:09:59;99598.31;;;3.13;91.31
48606;BME280;8482;54.396;18.590;2023-12-20T20:12:25;99597.28;;;3.15;90.45
48606;BME280;8482;54.396;18.590;2023-12-20T20:14:51;99604.28;;;3.15;90.65
48606;BME280;8482;54.396;18.590;2023-12-20T20:17:17;99598.13;;;3.16;90.70
48606;BME280;8482;54.396;18.590;2023-12-20T20:19:43;99602.41;;;3.17;91.04
48606;BME280;8482;54.396;18.590;2023-12-20T20:22:09;99602.31;;;3.18;90.76
48606;BME280;8482;54.396;18.590;2023-12-20T20:24:37;99611.66;;;3.22;90.53
48606;BME280;8482;54.396;18.590;2023-12-20T20:27:03;99603.59;;;3.26;90.43
48606;BME280;8482;54.396;18.590;2023-12-20T20:29:29;99597.22;;;3.30;91.12
48606;BME280;8482;54.396;18.590;2023-12-20T20:31:55;99596.28;;;3.31;91.18
48606;BME280;8482;54.396;18.590;2023-12-20T20:34:21;99622.25;;;3.34;90.71
48606;BME280;8482;54.396;18.590;2023-12-20T20:36:56;99610.63;;;3.38;90.76
48606;BME280;8482;54.396;18.590;2023-12-20T20:39:22;99636.00;;;3.37;90.22
48606;BME280;8482;54.396;18.590;2023-12-20T20:41:48;99640.28;;;3.38;89.89
48606;BME280;8482;54.396;18.590;2023-12-20T20:44:14;99649.09;;;3.37;90.30
48606;BME280;8482;54.396;18.590;2023-12-20T20:46:40;99643.16;;;3.35;90.30
48606;BME280;8482;54.396;18.590;2023-12-20T20:49:07;99639.03;;;3.31;90.63
48606;BME280;8482;54.396;18.590;2023-12-20T20:51:33;99644.09;;;3.34;90.58
48606;BME280;8482;54.396;18.590;2023-12-20T20:53:59;99637.34;;;3.30;90.52
48606;BME280;8482;54.396;18.590;2023-12-20T20:56:25;99648.38;;;3.35;91.08
48606;BME280;8482;54.396;18.590;2023-12-20T20:58:51;99641.47;;;3.34;91.11
48606;BME280;8482;54.396;18.590;2023-12-20T21:01:18;99636.09;;;3.36;90.97
48606;BME280;8482;54.396;18.590;2023-12-20T21:03:44;99631.91;;;3.33;91.55
48606;BME280;8482;54.396;18.590;2023-12-20T21:06:11;99645.75;;;3.35;91.68
48606;BME280;8482;54.396;18.590;2023-12-20T21:08:37;99623.75;;;3.38;91.71
48606;BME280;8482;54.396;18.590;2023-12-20T21:11:03;99623.13;;;3.34;90.91
48606;BME280;8482;54.396;18.590;2023-12-20T21:13:29;99626.38;;;3.38;91.49
48606;BME280;8482;54.396;18.590;2023-12-20T21:15:56;99616.69;;;3.38;91.03
48606;BME280;8482;54.396;18.590;2023-12-20T21:18:22;99618.50;;;3.38;91.22
48606;BME280;8482;54.396;18.590;2023-12-20T21:20:48;99623.75;;;3.38;90.40
48606;BME280;8482;54.396;18.590;2023-12-20T21:23:17;99617.63;;;3.37;90.46
48606;BME280;8482;54.396;18.590;2023-12-20T21:25:43;99607.47;;;3.33;91.05
48606;BME280;8482;54.396;18.590;2023-12-20T21:28:10;99606.44;;;3.35;90.67
48606;BME280;8482;54.396;18.590;2023-12-20T21:30:37;99617.88;;;3.34;90.39
48606;BME280;8482;54.396;18.590;2023-12-20T21:33:03;99609.47;;;3.29;89.70
48606;BME280;8482;54.396;18.590;2023-12-20T21:35:30;99606.97;;;3.28;89.25
48606;BME280;8482;54.396;18.590;2023-12-20T21:37:56;99613.97;;;3.27;89.05
48606;BME280;8482;54.396;18.590;2023-12-20T21:40:22;99633.78;;;3.31;88.77
48606;BME280;8482;54.396;18.590;2023-12-20T21:42:48;99635.38;;;3.34;88.43
48606;BME280;8482;54.396;18.590;2023-12-20T21:45:14;99633.78;;;3.31;88.78
48606;BME280;8482;54.396;18.590;2023-12-20T21:47:40;99639.78;;;3.33;89.35
48606;BME280;8482;54.396;18.590;2023-12-20T21:50:08;99634.41;;;3.35;89.45
48606;BME280;8482;54.396;18.590;2023-12-20T21:52:34;99629.81;;;3.38;89.46
48606;BME280;8482;54.396;18.590;2023-12-20T21:55:00;99631.50;;;3.40;89.75
48606;BME280;8482;54.396;18.590;2023-12-20T21:57:26;99634.03;;;3.41;90.07
48606;BME280;8482;54.396;18.590;2023-12-20T21:59:52;99630.66;;;3.39;90.13
48606;BME280;8482;54.396;18.590;2023-12-20T22:02:18;99636.41;;;3.44;90.17
48606;BME280;8482;54.396;18.590;2023-12-20T22:04:43;99638.41;;;3.41;89.88
48606;BME280;8482;54.396;18.590;2023-12-20T22:07:09;99623.13;;;3.34;89.64
48606;BME280;8482;54.396;18.590;2023-12-20T22:09:35;99629.28;;;3.33;89.52
48606;BME280;8482;54.396;18.590;2023-12-20T22:12:01;99639.88;;;3.32;89.79
48606;BME280;8482;54.396;18.590;2023-12-20T22:14:28;99636.94;;;3.24;90.01
48606;BME280;8482;54.396;18.590;2023-12-20T22:16:56;99638.72;;;3.23;90.06
48606;BME280;8482;54.396;18.590;2023-12-20T22:19:23;99651.72;;;3.25;90.13
48606;BME280;8482;54.396;18.590;2023-12-20T22:21:49;99650.13;;;3.22;90.15
48606;BME280;8482;54.396;18.590;2023-12-20T22:24:15;99634.91;;;3.14;89.82
48606;BME280;8482;54.396;18.590;2023-12-20T22:26:40;99663.75;;;3.14;90.43
48606;BME280;8482;54.396;18.590;2023-12-20T22:29:06;99687.22;;;3.16;90.47
48606;BME280;8482;54.396;18.590;2023-12-20T22:31:32;99708.38;;;3.13;90.75
48606;BME280;8482;54.396;18.590;2023-12-20T22:33:58;99705.97;;;3.10;90.52
48606;BME280;8482;54.396;18.590;2023-12-20T22:36:24;99680.78;;;3.07;90.25
48606;BME280;8482;54.396;18.590;2023-12-20T22:38:50;99660.75;;;2.93;89.40
48606;BME280;8482;54.396;18.590;2023-12-20T22:41:19;99656.75;;;2.87;89.94
48606;BME280;8482;54.396;18.590;2023-12-20T22:43:44;99650.88;;;2.84;90.13
48606;BME280;8482;54.396;18.590;2023-12-20T22:46:11;99641.41;;;2.81;89.60
48606;BME280;8482;54.396;18.590;2023-12-20T22:48:38;99639.09;;;2.76;90.08
48606;BME280;8482;54.396;18.590;2023-12-20T22:51:04;99639.28;;;2.73;90.22
48606;BME280;8482;54.396;18.590;2023-12-20T22:53:30;99628.34;;;2.67;90.42
48606;BME280;8482;54.396;18.590;2023-12-20T22:55:56;99628.34;;;2.67;90.14
48606;BME280;8482;54.396;18.590;2023-12-20T22:58:21;99638.81;;;2.67;90.70
48606;BME280;8482;54.396;18.590;2023-12-20T23:00:48;99621.53;;;2.64;90.22
48606;BME280;8482;54.396;18.590;2023-12-20T23:03:14;99623.53;;;2.60;90.35
